sensor_id;sensor_type;location;lat;lon;timestamp;P1;durP1;ratioP1;P2;durP2;ratioP2
35257;SDS011;21385;50.878;8.050;2023-04-25T00:02:00;5.20;;;1.75;;
35257;SDS011;21385;50.878;8.050;2023-04-25T00:04:26;1.85;;;1.38;;
35257;SDS011;21385;50.878;8.050;2023-04-25T00:06:53;4.03;;;1.60;;
35257;SDS011;21385;50.878;8.050;2023-04-25T00:09:19;1.50;;;1.27;;
35257;SDS011;21385;50.878;8.050;2023-04-25T00:11:44;2.25;;;2.05;;
35257;SDS011;21385;50.878;8.050;2023-04-25T00:14:10;0.73;;;0.73;;
35257;SDS011;21385;50.878;8.050;2023-04-25T00:16:36;4.68;;;1.70;;
35257;SDS011;21385;50.878;8.050;2023-04-25T00:19:02;2.65;;;1.73;;
35257;SDS011;21385;50.878;8.050;2023-04-25T00:21:28;3.50;;;1.45;;
35257;SDS011;21385;50.878;8.050;2023-04-25T00:23:54;1.35;;;1.15;;
35257;SDS011;21385;50.878;8.050;2023-04-25T00:26:20;1.45;;;1.20;;
35257;SDS011;21385;50.878;8.050;2023-04-25T00:28:46;3.67;;;1.65;;
35257;SDS011;21385;50.878;8.050;2023-04-25T00:31:12;2.75;;;1.10;;
35257;SDS011;21385;50.878;8.050;2023-04-25T00:33:38;2.60;;;1.48;;
35257;SDS011;21385;50.878;8.050;2023-04-25T00:36:04;1.23;;;1.13;;
35257;SDS011;21385;50.878;8.050;2023-04-25T00:38:30;2.15;;;1.75;;
35257;SDS011;21385;50.878;8.050;2023-04-25T00:40:56;4.13;;;1.20;;
35257;SDS011;21385;50.878;8.050;2023-04-25T00:43:23;6.78;;;1.80;;
35257;SDS011;21385;50.878;8.050;2023-04-25T00:45:52;1.58;;;1.33;;
35257;SDS011;21385;50.878;8.050;2023-04-25T00:48:18;2.78;;;1.70;;
35257;SDS011;21385;50.878;8.050;2023-04-25T00:50:58;1.20;;;1.10;;
35257;SDS011;21385;50.878;8.050;2023-04-25T00:53:25;4.50;;;2.17;;
35257;SDS011;21385;50.878;8.050;2023-04-25T00:55:51;1.85;;;1.67;;
35257;SDS011;21385;50.878;8.050;2023-04-25T00:58:18;2.78;;;1.55;;
35257;SDS011;21385;50.878;8.050;2023-04-25T01:00:45;2.42;;;1.38;;
35257;SDS011;21385;50.878;8.050;2023-04-25T01:03:12;2.10;;;1.92;;
35257;SDS011;21385;50.878;8.050;2023-04-25T01:05:39;1.88;;;1.35;;
35257;SDS011;21385;50.878;8.050;2023-04-25T01:08:06;3.92;;;2.03;;
35257;SDS011;21385;50.878;8.050;2023-04-25T01:10:32;4.35;;;2.15;;
35257;SDS011;21385;50.878;8.050;2023-04-25T01:12:57;3.47;;;1.25;;
35257;SDS011;21385;50.878;8.050;2023-04-25T01:15:23;1.65;;;1.48;;
35257;SDS011;21385;50.878;8.050;2023-04-25T01:17:49;2.88;;;1.77;;
35257;SDS011;21385;50.878;8.050;2023-04-25T01:20:14;1.23;;;1.13;;
35257;SDS011;21385;50.878;8.050;2023-04-25T01:22:40;1.15;;;1.08;;
35257;SDS011;21385;50.878;8.050;2023-04-25T01:25:07;2.58;;;1.88;;
35257;SDS011;21385;50.878;8.050;2023-04-25T01:27:33;1.40;;;1.30;;
35257;SDS011;21385;50.878;8.050;2023-04-25T01:30:00;23.33;;;2.42;;
35257;SDS011;21385;50.878;8.050;2023-04-25T01:32:25;11.60;;;2.17;;
35257;SDS011;21385;50.878;8.050;2023-04-25T01:34:52;3.42;;;1.65;;
35257;SDS011;21385;50.878;8.050;2023-04-25T01:37:17;2.17;;;1.98;;
35257;SDS011;21385;50.878;8.050;2023-04-25T01:39:43;4.15;;;1.48;;
35257;SDS011;21385;50.878;8.050;2023-04-25T01:42:09;5.28;;;2.25;;
35257;SDS011;21385;50.878;8.050;2023-04-25T01:44:35;2.67;;;1.70;;
35257;SDS011;21385;50.878;8.050;2023-04-25T01:47:00;1.13;;;1.02;;
35257;SDS011;21385;50.878;8.050;2023-04-25T01:49:26;1.73;;;1.40;;
35257;SDS011;21385;50.878;8.050;2023-04-25T01:51:51;1.92;;;1.83;;
35257;SDS011;21385;50.878;8.050;2023-04-25T01:54:17;1.35;;;1.23;;
35257;SDS011;21385;50.878;8.050;2023-04-25T01:56:43;1.58;;;1.48;;
35257;SDS011;21385;50.878;8.050;2023-04-25T02:01:40;3.97;;;1.45;;
35257;SDS011;21385;50.878;8.050;2023-04-25T02:04:06;1.85;;;1.67;;
35257;SDS011;21385;50.878;8.050;2023-04-25T02:06:31;1.60;;;1.50;;
35257;SDS011;21385;50.878;8.050;2023-04-25T02:08:57;5.32;;;2.80;;
35257;SDS011;21385;50.878;8.050;2023-04-25T02:11:23;3.88;;;3.20;;
35257;SDS011;21385;50.878;8.050;2023-04-25T02:13:48;6.10;;;2.08;;
35257;SDS011;21385;50.878;8.050;2023-04-25T02:16:14;3.83;;;2.25;;
35257;SDS011;21385;50.878;8.050;2023-04-25T02:18:39;10.18;;;2.70;;
35257;SDS011;21385;50.878;8.050;2023-04-25T02:21:05;7.07;;;2.53;;
35257;SDS011;21385;50.878;8.050;2023-04-25T02:23:31;2.72;;;2.05;;
35257;SDS011;21385;50.878;8.050;2023-04-25T02:25:56;2.08;;;1.75;;
35257;SDS011;21385;50.878;8.050;2023-04-25T02:28:23;1.67;;;1.55;;
35257;SDS011;21385;50.878;8.050;2023-04-25T02:30:50;1.75;;;1.65;;
35257;SDS011;21385;50.878;8.050;2023-04-25T02:33:16;11.90;;;2.95;;
35257;SDS011;21385;50.878;8.050;2023-04-25T02:35:42;2.53;;;2.30;;
35257;SDS011;21385;50.878;8.050;2023-04-25T02:38:08;3.15;;;1.52;;
35257;SDS011;21385;50.878;8.050;2023-04-25T02:40:33;2.38;;;2.17;;
35257;SDS011;21385;50.878;8.050;2023-04-25T02:42:59;3.10;;;2.40;;
35257;SDS011;21385;50.878;8.050;2023-04-25T02:45:24;11.90;;;2.92;;
35257;SDS011;21385;50.878;8.050;2023-04-25T02:47:50;8.50;;;2.30;;
35257;SDS011;21385;50.878;8.050;2023-04-25T02:50:15;4.53;;;1.58;;
35257;SDS011;21385;50.878;8.050;2023-04-25T02:52:42;1.75;;;1.65;;
35257;SDS011;21385;50.878;8.050;2023-04-25T02:55:08;3.58;;;2.38;;
35257;SDS011;21385;50.878;8.050;2023-04-25T02:57:34;8.82;;;2.15;;
35257;SDS011;21385;50.878;8.050;2023-04-25T02:59:59;9.02;;;2.67;;
35257;SDS011;21385;50.878;8.050;2023-04-25T03:02:25;2.25;;;2.05;;
35257;SDS011;21385;50.878;8.050;2023-04-25T03:04:50;3.28;;;1.85;;
35257;SDS011;21385;50.878;8.050;2023-04-25T03:07:17;6.72;;;2.72;;
35257;SDS011;21385;50.878;8.050;2023-04-25T03:09:42;1.77;;;1.67;;
35257;SDS011;21385;50.878;8.050;2023-04-25T03:12:08;1.77;;;1.17;;
35257;SDS011;21385;50.878;8.050;2023-04-25T03:14:33;2.00;;;1.60;;
35257;SDS011;21385;50.878;8.050;2023-04-25T03:16:59;1.83;;;1.67;;
35257;SDS011;21385;50.878;8.050;2023-04-25T03:19:25;2.45;;;2.17;;
35257;SDS011;21385;50.878;8.050;2023-04-25T03:21:50;3.67;;;2.13;;
35257;SDS011;21385;50.878;8.050;2023-04-25T03:24:16;2.67;;;2.33;;
35257;SDS011;21385;50.878;8.050;2023-04-25T03:26:42;7.07;;;2.30;;
35257;SDS011;21385;50.878;8.050;2023-04-25T03:29:07;1.55;;;1.45;;
35257;SDS011;21385;50.878;8.050;2023-04-25T03:31:33;3.35;;;1.80;;
35257;SDS011;21385;50.878;8.050;2023-04-25T03:33:59;3.28;;;2.05;;
35257;SDS011;21385;50.878;8.050;2023-04-25T03:36:24;1.58;;;1.48;;
35257;SDS011;21385;50.878;8.050;2023-04-25T03:38:50;5.35;;;3.00;;
35257;SDS011;21385;50.878;8.050;2023-04-25T03:41:15;2.90;;;2.08;;
35257;SDS011;21385;50.878;8.050;2023-04-25T03:43:41;5.00;;;1.38;;
35257;SDS011;21385;50.878;8.050;2023-04-25T03:46:07;3.83;;;1.70;;
35257;SDS011;21385;50.878;8.050;2023-04-25T03:48:32;0.85;;;0.85;;
35257;SDS011;21385;50.878;8.050;2023-04-25T03:50:58;4.18;;;1.73;;
35257;SDS011;21385;50.878;8.050;2023-04-25T03:53:24;11.40;;;2.10;;
35257;SDS011;21385;50.878;8.050;2023-04-25T03:55:49;2.90;;;2.00;;
35257;SDS011;21385;50.878;8.050;2023-04-25T03:58:15;4.85;;;2.17;;
35257;SDS011;21385;50.878;8.050;2023-04-25T04:00:40;2.33;;;2.00;;
35257;SDS011;21385;50.878;8.050;2023-04-25T04:03:06;3.05;;;1.83;;
35257;SDS011;21385;50.878;8.050;2023-04-25T04:05:32;3.92;;;2.30;;
35257;SDS011;21385;50.878;8.050;2023-04-25T04:07:57;6.80;;;2.22;;
35257;SDS011;21385;50.878;8.050;2023-04-25T04:10:23;4.13;;;1.73;;
35257;SDS011;21385;50.878;8.050;2023-04-25T04:12:48;3.97;;;1.73;;
35257;SDS011;21385;50.878;8.050;2023-04-25T04:15:14;3.70;;;1.75;;
35257;SDS011;21385;50.878;8.050;2023-04-25T04:17:39;2.03;;;1.70;;
35257;SDS011;21385;50.878;8.050;2023-04-25T04:20:06;8.00;;;2.35;;
35257;SDS011;21385;50.878;8.050;2023-04-25T04:22:33;6.65;;;2.75;;
35257;SDS011;21385;50.878;8.050;2023-04-25T04:24:58;2.67;;;2.47;;
35257;SDS011;21385;50.878;8.050;2023-04-25T04:27:24;4.70;;;2.38;;
35257;SDS011;21385;50.878;8.050;2023-04-25T04:29:49;7.18;;;2.53;;
35257;SDS011;21385;50.878;8.050;2023-04-25T04:32:17;3.40;;;1.80;;
35257;SDS011;21385;50.878;8.050;2023-04-25T04:34:43;2.72;;;1.95;;
35257;SDS011;21385;50.878;8.050;2023-04-25T04:37:09;2.20;;;2.00;;
35257;SDS011;21385;50.878;8.050;2023-04-25T04:39:35;6.95;;;1.85;;
35257;SDS011;21385;50.878;8.050;2023-04-25T04:42:01;2.33;;;2.13;;
35257;SDS011;21385;50.878;8.050;2023-04-25T04:44:29;11.48;;;2.03;;
35257;SDS011;21385;50.878;8.050;2023-04-25T04:46:57;3.17;;;2.22;;
35257;SDS011;21385;50.878;8.050;2023-04-25T04:49:23;5.10;;;2.70;;
35257;SDS011;21385;50.878;8.050;2023-04-25T04:51:49;2.22;;;1.80;;
35257;SDS011;21385;50.878;8.050;2023-04-25T04:54:15;5.05;;;2.15;;
35257;SDS011;21385;50.878;8.050;2023-04-25T04:56:40;8.18;;;2.90;;
35257;SDS011;21385;50.878;8.050;2023-04-25T04:59:06;5.55;;;2.50;;
35257;SDS011;21385;50.878;8.050;2023-04-25T05:01:32;3.70;;;2.38;;
35257;SDS011;21385;50.878;8.050;2023-04-25T05:04:00;3.63;;;2.28;;
35257;SDS011;21385;50.878;8.050;2023-04-25T05:06:27;1.95;;;1.73;;
35257;SDS011;21385;50.878;8.050;2023-04-25T05:08:56;2.10;;;1.85;;
35257;SDS011;21385;50.878;8.050;2023-04-25T05:11:22;3.40;;;2.38;;
35257;SDS011;21385;50.878;8.050;2023-04-25T05:13:51;2.22;;;2.10;;
35257;SDS011;21385;50.878;8.050;2023-04-25T05:16:17;2.95;;;2.53;;
35257;SDS011;21385;50.878;8.050;2023-04-25T05:18:43;7.30;;;3.80;;
35257;SDS011;21385;50.878;8.050;2023-04-25T05:21:09;5.25;;;3.10;;
35257;SDS011;21385;50.878;8.050;2023-04-25T05:23:34;3.33;;;3.03;;
35257;SDS011;21385;50.878;8.050;2023-04-25T05:26:00;3.70;;;3.25;;
35257;SDS011;21385;50.878;8.050;2023-04-25T05:28:26;5.60;;;3.00;;
35257;SDS011;21385;50.878;8.050;2023-04-25T05:30:51;4.07;;;3.28;;
35257;SDS011;21385;50.878;8.050;2023-04-25T05:33:17;10.00;;;3.88;;
35257;SDS011;21385;50.878;8.050;2023-04-25T05:35:43;8.02;;;4.15;;
35257;SDS011;21385;50.878;8.050;2023-04-25T05:38:09;4.13;;;2.38;;
35257;SDS011;21385;50.878;8.050;2023-04-25T05:40:35;7.22;;;3.40;;
35257;SDS011;21385;50.878;8.050;2023-04-25T05:43:01;14.82;;;2.80;;
35257;SDS011;21385;50.878;8.050;2023-04-25T05:45:27;6.28;;;3.35;;
35257;SDS011;21385;50.878;8.050;2023-04-25T05:47:52;4.95;;;4.30;;
35257;SDS011;21385;50.878;8.050;2023-04-25T05:50:18;10.60;;;4.07;;
35257;SDS011;21385;50.878;8.050;2023-04-25T05:52:43;8.20;;;3.92;;
35257;SDS011;21385;50.878;8.050;2023-04-25T05:55:09;5.40;;;4.68;;
35257;SDS011;21385;50.878;8.050;2023-04-25T05:57:34;10.82;;;3.85;;
35257;SDS011;21385;50.878;8.050;2023-04-25T06:00:00;4.97;;;3.90;;
35257;SDS011;21385;50.878;8.050;2023-04-25T06:02:26;5.20;;;3.38;;
35257;SDS011;21385;50.878;8.050;2023-04-25T06:04:52;5.72;;;3.00;;
35257;SDS011;21385;50.878;8.050;2023-04-25T06:07:18;5.93;;;4.03;;
35257;SDS011;21385;50.878;8.050;2023-04-25T06:09:44;11.52;;;3.78;;
35257;SDS011;21385;50.878;8.050;2023-04-25T06:12:10;4.25;;;3.15;;
35257;SDS011;21385;50.878;8.050;2023-04-25T06:14:36;7.40;;;2.80;;
35257;SDS011;21385;50.878;8.050;2023-04-25T06:17:02;5.13;;;2.67;;
35257;SDS011;21385;50.878;8.050;2023-04-25T06:19:33;4.45;;;3.13;;
35257;SDS011;21385;50.878;8.050;2023-04-25T06:21:59;7.53;;;4.20;;
35257;SDS011;21385;50.878;8.050;2023-04-25T06:24:25;4.15;;;2.95;;
35257;SDS011;21385;50.878;8.050;2023-04-25T06:26:50;13.50;;;3.75;;
35257;SDS011;21385;50.878;8.050;2023-04-25T06:29:16;3.15;;;2.85;;
35257;SDS011;21385;50.878;8.050;2023-04-25T06:31:42;9.40;;;3.10;;
35257;SDS011;21385;50.878;8.050;2023-04-25T06:34:07;8.70;;;3.70;;
35257;SDS011;21385;50.878;8.050;2023-04-25T06:36:33;7.15;;;3.50;;
35257;SDS011;21385;50.878;8.050;2023-04-25T06:38:58;9.70;;;5.78;;
35257;SDS011;21385;50.878;8.050;2023-04-25T06:41:24;9.80;;;5.25;;
35257;SDS011;21385;50.878;8.050;2023-04-25T06:43:50;9.38;;;3.92;;
35257;SDS011;21385;50.878;8.050;2023-04-25T06:46:15;15.32;;;7.25;;
35257;SDS011;21385;50.878;8.050;2023-04-25T06:48:41;10.98;;;6.05;;
35257;SDS011;21385;50.878;8.050;2023-04-25T06:51:07;17.02;;;6.45;;
35257;SDS011;21385;50.878;8.050;2023-04-25T06:53:32;8.93;;;4.45;;
35257;SDS011;21385;50.878;8.050;2023-04-25T06:55:58;13.60;;;7.10;;
35257;SDS011;21385;50.878;8.050;2023-04-25T06:58:23;2.55;;;2.35;;
35257;SDS011;21385;50.878;8.050;2023-04-25T07:00:49;4.13;;;3.35;;
35257;SDS011;21385;50.878;8.050;2023-04-25T07:03:14;4.68;;;2.63;;
35257;SDS011;21385;50.878;8.050;2023-04-25T07:05:40;7.47;;;4.13;;
35257;SDS011;21385;50.878;8.050;2023-04-25T07:08:06;8.48;;;3.70;;
35257;SDS011;21385;50.878;8.050;2023-04-25T07:10:31;5.63;;;2.50;;
35257;SDS011;21385;50.878;8.050;2023-04-25T07:12:57;13.52;;;2.72;;
35257;SDS011;21385;50.878;8.050;2023-04-25T07:15:23;1.08;;;0.90;;
35257;SDS011;21385;50.878;8.050;2023-04-25T07:17:48;1.52;;;1.42;;
35257;SDS011;21385;50.878;8.050;2023-04-25T07:20:14;10.88;;;2.30;;
35257;SDS011;21385;50.878;8.050;2023-04-25T07:22:41;12.25;;;1.90;;
35257;SDS011;21385;50.878;8.050;2023-04-25T07:25:06;16.70;;;2.08;;
35257;SDS011;21385;50.878;8.050;2023-04-25T07:27:33;1.65;;;1.55;;
35257;SDS011;21385;50.878;8.050;2023-04-25T07:29:59;2.80;;;1.45;;
35257;SDS011;21385;50.878;8.050;2023-04-25T07:32:25;3.83;;;2.00;;
35257;SDS011;21385;50.878;8.050;2023-04-25T07:34:50;2.03;;;1.10;;
35257;SDS011;21385;50.878;8.050;2023-04-25T07:37:16;3.13;;;1.92;;
35257;SDS011;21385;50.878;8.050;2023-04-25T07:39:43;5.65;;;2.28;;
35257;SDS011;21385;50.878;8.050;2023-04-25T07:42:11;0.98;;;0.77;;
35257;SDS011;21385;50.878;8.050;2023-04-25T07:44:36;1.45;;;1.10;;
35257;SDS011;21385;50.878;8.050;2023-04-25T07:47:06;3.05;;;1.55;;
35257;SDS011;21385;50.878;8.050;2023-04-25T07:49:35;2.83;;;1.58;;
35257;SDS011;21385;50.878;8.050;2023-04-25T07:52:02;3.60;;;2.05;;
35257;SDS011;21385;50.878;8.050;2023-04-25T07:54:30;5.18;;;1.30;;
35257;SDS011;21385;50.878;8.050;2023-04-25T07:56:57;3.45;;;2.10;;
35257;SDS011;21385;50.878;8.050;2023-04-25T07:59:23;6.43;;;3.05;;
35257;SDS011;21385;50.878;8.050;2023-04-25T08:01:48;4.35;;;1.90;;
35257;SDS011;21385;50.878;8.050;2023-04-25T08:04:14;1.23;;;1.17;;
35257;SDS011;21385;50.878;8.050;2023-04-25T08:06:40;5.63;;;2.38;;
35257;SDS011;21385;50.878;8.050;2023-04-25T08:09:05;4.20;;;1.63;;
35257;SDS011;21385;50.878;8.050;2023-04-25T08:11:31;8.75;;;1.92;;
35257;SDS011;21385;50.878;8.050;2023-04-25T08:13:57;2.38;;;2.05;;
35257;SDS011;21385;50.878;8.050;2023-04-25T08:16:22;2.50;;;1.70;;
35257;SDS011;21385;50.878;8.050;2023-04-25T08:18:49;4.07;;;2.10;;
35257;SDS011;21385;50.878;8.050;2023-04-25T08:21:15;4.05;;;0.88;;
35257;SDS011;21385;50.878;8.050;2023-04-25T08:23:41;1.85;;;1.38;;
35257;SDS011;21385;50.878;8.050;2023-04-25T08:26:06;2.72;;;1.70;;
35257;SDS011;21385;50.878;8.050;2023-04-25T08:28:35;10.98;;;2.90;;
35257;SDS011;21385;50.878;8.050;2023-04-25T08:31:01;3.63;;;1.40;;
35257;SDS011;21385;50.878;8.050;2023-04-25T08:33:26;16.13;;;2.83;;
35257;SDS011;21385;50.878;8.050;2023-04-25T08:35:52;2.55;;;1.60;;
35257;SDS011;21385;50.878;8.050;2023-04-25T08:38:18;3.33;;;1.15;;
35257;SDS011;21385;50.878;8.050;2023-04-25T08:40:44;4.82;;;1.92;;
35257;SDS011;21385;50.878;8.050;2023-04-25T08:43:13;1.65;;;1.42;;
35257;SDS011;21385;50.878;8.050;2023-04-25T08:45:40;4.70;;;2.08;;
35257;SDS011;21385;50.878;8.050;2023-04-25T08:48:07;1.00;;;0.85;;
35257;SDS011;21385;50.878;8.050;2023-04-25T08:50:37;3.03;;;1.73;;
35257;SDS011;21385;50.878;8.050;2023-04-25T08:53:05;7.13;;;1.25;;
35257;SDS011;21385;50.878;8.050;2023-04-25T08:55:36;4.93;;;1.45;;
35257;SDS011;21385;50.878;8.050;2023-04-25T08:58:03;2.35;;;1.67;;
35257;SDS011;21385;50.878;8.050;2023-04-25T09:00:30;2.88;;;1.55;;
35257;SDS011;21385;50.878;8.050;2023-04-25T09:02:56;1.40;;;1.30;;
35257;SDS011;21385;50.878;8.050;2023-04-25T09:05:23;1.10;;;1.00;;
35257;SDS011;21385;50.878;8.050;2023-04-25T09:07:49;2.13;;;0.95;;
35257;SDS011;21385;50.878;8.050;2023-04-25T09:10:15;0.68;;;0.63;;
35257;SDS011;21385;50.878;8.050;2023-04-25T09:12:40;1.52;;;0.80;;
35257;SDS011;21385;50.878;8.050;2023-04-25T09:15:08;1.90;;;1.05;;
35257;SDS011;21385;50.878;8.050;2023-04-25T09:17:35;1.50;;;0.98;;
35257;SDS011;21385;50.878;8.050;2023-04-25T09:20:05;5.57;;;2.65;;
35257;SDS011;21385;50.878;8.050;2023-04-25T09:22:33;8.60;;;5.90;;
35257;SDS011;21385;50.878;8.050;2023-04-25T09:25:02;8.30;;;3.88;;
35257;SDS011;21385;50.878;8.050;2023-04-25T09:27:48;13.23;;;2.22;;
35257;SDS011;21385;50.878;8.050;2023-04-25T09:30:18;3.00;;;2.15;;
35257;SDS011;21385;50.878;8.050;2023-04-25T09:32:55;1.85;;;1.10;;
35257;SDS011;21385;50.878;8.050;2023-04-25T09:35:25;0.75;;;0.75;;
35257;SDS011;21385;50.878;8.050;2023-04-25T09:37:51;2.17;;;1.30;;
35257;SDS011;21385;50.878;8.050;2023-04-25T09:40:17;1.33;;;0.90;;
35257;SDS011;21385;50.878;8.050;2023-04-25T09:42:43;2.38;;;1.48;;
35257;SDS011;21385;50.878;8.050;2023-04-25T09:45:09;6.70;;;1.52;;
35257;SDS011;21385;50.878;8.050;2023-04-25T09:47:40;1.23;;;1.17;;
35257;SDS011;21385;50.878;8.050;2023-04-25T09:50:15;1.40;;;1.27;;
35257;SDS011;21385;50.878;8.050;2023-04-25T09:52:42;2.42;;;1.60;;
35257;SDS011;21385;50.878;8.050;2023-04-25T09:55:07;4.03;;;1.90;;
35257;SDS011;21385;50.878;8.050;2023-04-25T09:57:33;1.75;;;1.25;;
35257;SDS011;21385;50.878;8.050;2023-04-25T10:00:00;4.72;;;2.03;;
35257;SDS011;21385;50.878;8.050;2023-04-25T10:02:29;3.10;;;1.30;;
35257;SDS011;21385;50.878;8.050;2023-04-25T10:04:56;5.78;;;2.08;;
35257;SDS011;21385;50.878;8.050;2023-04-25T10:07:26;1.98;;;1.65;;
35257;SDS011;21385;50.878;8.050;2023-04-25T10:09:59;3.10;;;1.20;;
35257;SDS011;21385;50.878;8.050;2023-04-25T10:12:28;4.28;;;1.48;;
35257;SDS011;21385;50.878;8.050;2023-04-25T10:14:54;1.35;;;1.25;;
35257;SDS011;21385;50.878;8.050;2023-04-25T10:17:20;1.85;;;1.73;;
35257;SDS011;21385;50.878;8.050;2023-04-25T10:19:46;4.45;;;2.40;;
35257;SDS011;21385;50.878;8.050;2023-04-25T10:24:38;8.18;;;2.13;;
35257;SDS011;21385;50.878;8.050;2023-04-25T10:27:04;1.48;;;1.35;;
35257;SDS011;21385;50.878;8.050;2023-04-25T10:29:30;7.18;;;1.77;;
35257;SDS011;21385;50.878;8.050;2023-04-25T10:31:56;2.17;;;1.55;;
35257;SDS011;21385;50.878;8.050;2023-04-25T10:34:41;2.85;;;1.67;;
35257;SDS011;21385;50.878;8.050;2023-04-25T10:37:12;3.05;;;1.00;;
35257;SDS011;21385;50.878;8.050;2023-04-25T10:39:39;6.15;;;1.75;;
35257;SDS011;21385;50.878;8.050;2023-04-25T10:42:08;7.57;;;1.17;;
35257;SDS011;21385;50.878;8.050;2023-04-25T10:44:34;2.10;;;1.10;;
35257;SDS011;21385;50.878;8.050;2023-04-25T10:47:03;1.05;;;0.90;;
35257;SDS011;21385;50.878;8.050;2023-04-25T10:49:31;4.20;;;0.95;;
35257;SDS011;21385;50.878;8.050;2023-04-25T10:54:41;5.32;;;1.45;;
35257;SDS011;21385;50.878;8.050;2023-04-25T10:57:08;2.08;;;1.08;;
35257;SDS011;21385;50.878;8.050;2023-04-25T10:59:52;2.08;;;1.42;;
35257;SDS011;21385;50.878;8.050;2023-04-25T11:02:18;2.28;;;1.10;;
35257;SDS011;21385;50.878;8.050;2023-04-25T11:04:43;1.25;;;1.08;;
35257;SDS011;21385;50.878;8.050;2023-04-25T11:09:39;2.05;;;1.40;;
35257;SDS011;21385;50.878;8.050;2023-04-25T11:12:07;0.40;;;0.40;;
35257;SDS011;21385;50.878;8.050;2023-04-25T11:14:33;1.90;;;1.15;;
35257;SDS011;21385;50.878;8.050;2023-04-25T11:16:59;12.90;;;1.35;;
35257;SDS011;21385;50.878;8.050;2023-04-25T11:19:27;3.97;;;1.08;;
35257;SDS011;21385;50.878;8.050;2023-04-25T11:21:57;3.13;;;1.17;;
35257;SDS011;21385;50.878;8.050;2023-04-25T11:24:31;3.97;;;1.77;;
35257;SDS011;21385;50.878;8.050;2023-04-25T11:26:59;2.60;;;1.98;;
35257;SDS011;21385;50.878;8.050;2023-04-25T11:29:29;0.55;;;0.55;;
35257;SDS011;21385;50.878;8.050;2023-04-25T11:31:56;6.18;;;1.40;;
35257;SDS011;21385;50.878;8.050;2023-04-25T11:34:23;3.22;;;1.42;;
35257;SDS011;21385;50.878;8.050;2023-04-25T11:36:55;4.78;;;1.13;;
35257;SDS011;21385;50.878;8.050;2023-04-25T11:39:21;7.95;;;1.13;;
35257;SDS011;21385;50.878;8.050;2023-04-25T11:41:49;2.75;;;1.55;;
35257;SDS011;21385;50.878;8.050;2023-04-25T11:44:15;4.80;;;1.80;;
35257;SDS011;21385;50.878;8.050;2023-04-25T11:46:42;2.55;;;1.00;;
35257;SDS011;21385;50.878;8.050;2023-04-25T11:49:08;3.00;;;1.75;;
35257;SDS011;21385;50.878;8.050;2023-04-25T11:51:40;3.92;;;1.00;;
35257;SDS011;21385;50.878;8.050;2023-04-25T11:54:07;0.88;;;0.88;;
35257;SDS011;21385;50.878;8.050;2023-04-25T11:56:32;3.88;;;1.52;;
35257;SDS011;21385;50.878;8.050;2023-04-25T12:01:29;1.42;;;1.00;;
35257;SDS011;21385;50.878;8.050;2023-04-25T12:03:55;3.22;;;0.82;;
35257;SDS011;21385;50.878;8.050;2023-04-25T12:06:25;0.80;;;0.73;;
35257;SDS011;21385;50.878;8.050;2023-04-25T12:09:06;4.57;;;1.17;;
35257;SDS011;21385;50.878;8.050;2023-04-25T12:11:40;2.70;;;1.50;;
35257;SDS011;21385;50.878;8.050;2023-04-25T12:14:20;9.85;;;1.73;;
35257;SDS011;21385;50.878;8.050;2023-04-25T12:16:49;4.20;;;0.75;;
35257;SDS011;21385;50.878;8.050;2023-04-25T12:19:16;3.70;;;0.70;;
35257;SDS011;21385;50.878;8.050;2023-04-25T12:21:43;1.73;;;0.63;;
35257;SDS011;21385;50.878;8.050;2023-04-25T12:24:13;3.42;;;0.90;;
35257;SDS011;21385;50.878;8.050;2023-04-25T12:26:46;1.73;;;1.27;;
35257;SDS011;21385;50.878;8.050;2023-04-25T12:29:24;1.15;;;1.05;;
35257;SDS011;21385;50.878;8.050;2023-04-25T12:31:51;1.10;;;0.77;;
35257;SDS011;21385;50.878;8.050;2023-04-25T12:34:18;4.63;;;0.93;;
35257;SDS011;21385;50.878;8.050;2023-04-25T12:36:44;0.68;;;0.68;;
35257;SDS011;21385;50.878;8.050;2023-04-25T12:39:14;6.18;;;0.80;;
35257;SDS011;21385;50.878;8.050;2023-04-25T12:41:40;2.78;;;0.93;;
35257;SDS011;21385;50.878;8.050;2023-04-25T12:44:06;15.10;;;0.63;;
35257;SDS011;21385;50.878;8.050;2023-04-25T12:46:32;0.40;;;0.40;;
35257;SDS011;21385;50.878;8.050;2023-04-25T12:48:57;2.22;;;0.77;;
35257;SDS011;21385;50.878;8.050;2023-04-25T12:51:23;3.17;;;0.77;;
35257;SDS011;21385;50.878;8.050;2023-04-25T12:53:50;2.58;;;0.80;;
35257;SDS011;21385;50.878;8.050;2023-04-25T12:56:16;0.88;;;0.85;;
35257;SDS011;21385;50.878;8.050;2023-04-25T12:58:42;0.80;;;0.77;;
35257;SDS011;21385;50.878;8.050;2023-04-25T13:01:09;0.93;;;0.85;;
35257;SDS011;21385;50.878;8.050;2023-04-25T13:03:34;1.08;;;0.65;;
35257;SDS011;21385;50.878;8.050;2023-04-25T13:06:00;0.90;;;0.70;;
35257;SDS011;21385;50.878;8.050;2023-04-25T13:08:26;0.47;;;0.45;;
35257;SDS011;21385;50.878;8.050;2023-04-25T13:10:51;0.82;;;0.75;;
35257;SDS011;21385;50.878;8.050;2023-04-25T13:13:17;1.15;;;0.85;;
35257;SDS011;21385;50.878;8.050;2023-04-25T13:15:43;0.60;;;0.60;;
35257;SDS011;21385;50.878;8.050;2023-04-25T13:18:08;4.32;;;1.13;;
35257;SDS011;21385;50.878;8.050;2023-04-25T13:20:34;0.43;;;0.43;;
35257;SDS011;21385;50.878;8.050;2023-04-25T13:23:00;4.63;;;0.95;;
35257;SDS011;21385;50.878;8.050;2023-04-25T13:25:26;0.73;;;0.70;;
35257;SDS011;21385;50.878;8.050;2023-04-25T13:27:51;3.97;;;0.88;;
35257;SDS011;21385;50.878;8.050;2023-04-25T13:30:17;1.55;;;0.68;;
35257;SDS011;21385;50.878;8.050;2023-04-25T13:32:42;0.60;;;0.50;;
35257;SDS011;21385;50.878;8.050;2023-04-25T13:35:09;5.32;;;0.70;;
35257;SDS011;21385;50.878;8.050;2023-04-25T13:37:36;1.98;;;0.45;;
35257;SDS011;21385;50.878;8.050;2023-04-25T13:40:03;1.38;;;0.85;;
35257;SDS011;21385;50.878;8.050;2023-04-25T13:42:31;0.80;;;0.80;;
35257;SDS011;21385;50.878;8.050;2023-04-25T13:44:57;1.27;;;0.85;;
35257;SDS011;21385;50.878;8.050;2023-04-25T13:47:23;1.85;;;1.38;;
35257;SDS011;21385;50.878;8.050;2023-04-25T13:49:49;0.60;;;0.47;;
35257;SDS011;21385;50.878;8.050;2023-04-25T13:52:15;0.60;;;0.60;;
35257;SDS011;21385;50.878;8.050;2023-04-25T13:54:40;3.38;;;1.17;;
35257;SDS011;21385;50.878;8.050;2023-04-25T13:57:06;5.00;;;1.00;;
35257;SDS011;21385;50.878;8.050;2023-04-25T13:59:32;0.98;;;0.88;;
35257;SDS011;21385;50.878;8.050;2023-04-25T14:01:58;0.98;;;0.77;;
35257;SDS011;21385;50.878;8.050;2023-04-25T14:04:23;0.68;;;0.68;;
35257;SDS011;21385;50.878;8.050;2023-04-25T14:06:50;2.30;;;0.98;;
35257;SDS011;21385;50.878;8.050;2023-04-25T14:09:16;3.20;;;1.25;;
35257;SDS011;21385;50.878;8.050;2023-04-25T14:11:42;1.05;;;0.93;;
35257;SDS011;21385;50.878;8.050;2023-04-25T14:14:08;0.65;;;0.57;;
35257;SDS011;21385;50.878;8.050;2023-04-25T14:16:34;0.85;;;0.82;;
35257;SDS011;21385;50.878;8.050;2023-04-25T14:19:00;1.27;;;1.00;;
35257;SDS011;21385;50.878;8.050;2023-04-25T14:21:26;1.00;;;0.85;;
35257;SDS011;21385;50.878;8.050;2023-04-25T14:23:52;0.60;;;0.60;;
35257;SDS011;21385;50.878;8.050;2023-04-25T14:26:17;3.03;;;0.80;;
35257;SDS011;21385;50.878;8.050;2023-04-25T14:28:43;1.45;;;0.95;;
35257;SDS011;21385;50.878;8.050;2023-04-25T14:31:09;1.95;;;0.90;;
35257;SDS011;21385;50.878;8.050;2023-04-25T14:33:35;6.30;;;1.23;;
35257;SDS011;21385;50.878;8.050;2023-04-25T14:36:02;2.15;;;0.80;;
35257;SDS011;21385;50.878;8.050;2023-04-25T14:38:28;0.40;;;0.35;;
35257;SDS011;21385;50.878;8.050;2023-04-25T14:40:53;0.68;;;0.68;;
35257;SDS011;21385;50.878;8.050;2023-04-25T14:43:19;0.82;;;0.80;;
35257;SDS011;21385;50.878;8.050;2023-04-25T14:45:45;7.03;;;0.63;;
35257;SDS011;21385;50.878;8.050;2023-04-25T14:48:10;1.00;;;0.70;;
35257;SDS011;21385;50.878;8.050;2023-04-25T14:50:36;2.50;;;0.98;;
35257;SDS011;21385;50.878;8.050;2023-04-25T14:53:02;7.82;;;1.33;;
35257;SDS011;21385;50.878;8.050;2023-04-25T14:55:27;0.93;;;0.75;;